To NAV CANADA Home Page Login to a new session Search on AWWS site Feedback and Comments Disclaimer Vers la page française équivalente Tips FAQ What's new on the site To the Forecasts and Observations / NOTAM section To "File a Flight Plan" website Publications and other links Update of the User's profile FIC Telephone Numbers My Weather Data Folder Route Weather Data Regional Weather Data Local Weather Data To the Forecasts and Observations / NOTAM section
Request Generated 05/03/2016 at 10:40:55 UTC . Weather information available at that time is displayed.

METAR/TAF

WINDSOR/ON    

METAR CYQG 031000Z 32002KT 6SM BR BKN059 07/07 A2993 RMK SC7 SLP139=
METAR CYQG 030900Z 27003KT 8SM BKN054 06/06 A2994 RMK SC6 SLP141=
METAR CYQG 030800Z 22005KT 10SM FEW080 05/05 A2994 RMK AC2 SLP144=

TAF CYQG 030538Z 0306/0406 VRB03KT P6SM SCT070 TEMPO 0306/0313 2SM BR
PROB30 0308/0313 1/2SM FG VV002
FM031300 33005KT P6SM FEW030
BECMG 0314/0316 05008KT
FM031600 05008KT P6SM SCT040 TEMPO 0316/0323 BKN040
BECMG 0321/0323 21008KT
FM040000 21008KT P6SM SCT080 TEMPO 0400/0406 BKN080
RMK NXT FCST BY 031200Z=
Your time UTC time
Weather data provided by Environment Canada and NAV CANADA